Pagrindinis puslapis
METAR-TAF:

METAR-TAF

Oro uostai :

Plainview, Teksasas, Jungtinės Amerikos Valstijos

platuma: 34-10-05N, ilguma: 101-43-02W, Aukštis: 1028 m

Dabartinis oras

Ataskaita buvo paskelbta 31 minutes, ne 08:55 UTC
Vėjas 6 kt iš Rytų/Pietryčių
Temperatūra 14°C
Drėgmė 72%
Slėgis 1024 hPa
Matomumas: 16.1 km
Giedras dangus

METAR: KPVW 290855Z AUTO 11006KT 10SM CLR 14/09 A3025 RMK AO2 T01380091

Laikas: 04:26 (09:26 UTC)

Prognozė

Ataskaita buvo paskelbta 4 valandos ir 5 minutes, ne 05:21 UTC
Prognozė galioja nuo 29 metu 06 UTC su 30 metu 06 UTC
Vėjas 6 kt nuo kintamojo kryptimis
Matomumas: 10 km
Mažai debesys ne aukštis 25000 ft
Nuo 29 metu 1800 UTC
Vėjas 10 kt iš Pietų/Pietryčių
Matomumas: 10 km
Mažai debesys ne aukštis 25000 ft

TAF: KPVW 290521Z 2906/3006 VRB06KT P6SM FEW250 FM291800 16010KT P6SM FEW250

Orai ataskaitas ir orų prognozės (METAR, TAF).

turimą stotys yra geltonos ir raudonos taškus žemėlapyje.

Perkelti pele per norėdami pamatyti stoties vardą.

Tada spustelėkite, norėdami matyti oro stebėjimo ir prognozės.

Norėdami pakeisti žemėlapį: spustelėkite ant žalios mygtukų su juodo kryžiaus žemyn,; žalią mygtuką su brūkšneliu, jei norite nutolinti; arba žalių rodyklių gretimoms žemėlapius.


METAR-TAF: